sensor_id;sensor_type;location;lat;lon;timestamp;P1;durP1;ratioP1;P2;durP2;ratioP2
70444;SDS011;57902;49.638;11.070;2023-03-01T00:02:02;23.27;;;7.15;;
70444;SDS011;57902;49.638;11.070;2023-03-01T00:04:28;16.95;;;6.47;;
70444;SDS011;57902;49.638;11.070;2023-03-01T00:06:55;18.00;;;6.97;;
70444;SDS011;57902;49.638;11.070;2023-03-01T00:09:21;22.30;;;7.53;;
70444;SDS011;57902;49.638;11.070;2023-03-01T00:11:48;20.48;;;6.82;;
70444;SDS011;57902;49.638;11.070;2023-03-01T00:14:15;19.42;;;7.25;;
70444;SDS011;57902;49.638;11.070;2023-03-01T00:16:45;18.95;;;7.53;;
70444;SDS011;57902;49.638;11.070;2023-03-01T00:19:13;19.10;;;6.80;;
70444;SDS011;57902;49.638;11.070;2023-03-01T00:21:41;19.85;;;7.22;;
70444;SDS011;57902;49.638;11.070;2023-03-01T00:24:08;17.52;;;7.15;;
70444;SDS011;57902;49.638;11.070;2023-03-01T00:26:35;18.77;;;7.05;;
70444;SDS011;57902;49.638;11.070;2023-03-01T00:29:01;20.05;;;7.32;;
70444;SDS011;57902;49.638;11.070;2023-03-01T00:31:29;19.50;;;6.90;;
70444;SDS011;57902;49.638;11.070;2023-03-01T00:33:58;22.35;;;7.28;;
70444;SDS011;57902;49.638;11.070;2023-03-01T00:36:27;17.92;;;6.75;;
70444;SDS011;57902;49.638;11.070;2023-03-01T00:39:01;20.75;;;7.55;;
70444;SDS011;57902;49.638;11.070;2023-03-01T00:41:30;20.48;;;6.55;;
70444;SDS011;57902;49.638;11.070;2023-03-01T00:43:57;18.40;;;6.68;;
70444;SDS011;57902;49.638;11.070;2023-03-01T00:46:25;19.55;;;7.10;;
70444;SDS011;57902;49.638;11.070;2023-03-01T00:48:53;18.67;;;6.60;;
70444;SDS011;57902;49.638;11.070;2023-03-01T00:51:24;19.77;;;7.07;;
70444;SDS011;57902;49.638;11.070;2023-03-01T00:53:53;21.60;;;7.25;;
70444;SDS011;57902;49.638;11.070;2023-03-01T00:56:21;21.88;;;7.57;;
70444;SDS011;57902;49.638;11.070;2023-03-01T00:58:47;21.23;;;6.95;;
70444;SDS011;57902;49.638;11.070;2023-03-01T01:01:21;19.65;;;7.45;;
70444;SDS011;57902;49.638;11.070;2023-03-01T01:03:54;21.08;;;7.22;;
70444;SDS011;57902;49.638;11.070;2023-03-01T01:06:24;20.10;;;7.10;;
70444;SDS011;57902;49.638;11.070;2023-03-01T01:08:54;20.27;;;7.38;;
70444;SDS011;57902;49.638;11.070;2023-03-01T01:11:22;18.92;;;7.03;;
70444;SDS011;57902;49.638;11.070;2023-03-01T01:13:50;21.05;;;7.05;;
70444;SDS011;57902;49.638;11.070;2023-03-01T01:16:17;21.25;;;7.13;;
70444;SDS011;57902;49.638;11.070;2023-03-01T01:21:14;18.80;;;6.75;;
70444;SDS011;57902;49.638;11.070;2023-03-01T01:23:42;18.20;;;7.13;;
70444;SDS011;57902;49.638;11.070;2023-03-01T01:26:11;18.17;;;7.05;;
70444;SDS011;57902;49.638;11.070;2023-03-01T01:28:40;19.33;;;6.47;;
70444;SDS011;57902;49.638;11.070;2023-03-01T01:31:07;20.13;;;7.47;;
70444;SDS011;57902;49.638;11.070;2023-03-01T01:33:34;21.00;;;7.32;;
70444;SDS011;57902;49.638;11.070;2023-03-01T01:36:00;21.13;;;6.97;;
70444;SDS011;57902;49.638;11.070;2023-03-01T01:38:27;21.58;;;7.07;;
70444;SDS011;57902;49.638;11.070;2023-03-01T01:40:54;21.30;;;7.45;;
70444;SDS011;57902;49.638;11.070;2023-03-01T01:43:23;19.65;;;7.53;;
70444;SDS011;57902;49.638;11.070;2023-03-01T01:45:55;20.58;;;7.47;;
70444;SDS011;57902;49.638;11.070;2023-03-01T01:48:27;18.02;;;7.15;;
70444;SDS011;57902;49.638;11.070;2023-03-01T01:51:07;19.85;;;7.60;;
70444;SDS011;57902;49.638;11.070;2023-03-01T01:53:38;19.75;;;7.47;;
70444;SDS011;57902;49.638;11.070;2023-03-01T01:56:06;20.75;;;7.55;;
70444;SDS011;57902;49.638;11.070;2023-03-01T01:58:37;21.60;;;7.68;;
70444;SDS011;57902;49.638;11.070;2023-03-01T02:01:04;20.20;;;6.80;;
70444;SDS011;57902;49.638;11.070;2023-03-01T02:03:33;22.33;;;7.57;;
70444;SDS011;57902;49.638;11.070;2023-03-01T02:08:36;20.58;;;7.30;;
70444;SDS011;57902;49.638;11.070;2023-03-01T02:11:07;19.60;;;7.15;;
70444;SDS011;57902;49.638;11.070;2023-03-01T02:13:36;21.63;;;7.55;;
70444;SDS011;57902;49.638;11.070;2023-03-01T02:16:09;19.30;;;7.60;;
70444;SDS011;57902;49.638;11.070;2023-03-01T02:18:39;20.35;;;7.97;;
70444;SDS011;57902;49.638;11.070;2023-03-01T02:23:40;22.50;;;7.75;;
70444;SDS011;57902;49.638;11.070;2023-03-01T02:28:50;23.23;;;7.60;;
70444;SDS011;57902;49.638;11.070;2023-03-01T02:31:19;21.17;;;7.80;;
70444;SDS011;57902;49.638;11.070;2023-03-01T02:34:05;20.95;;;7.80;;
70444;SDS011;57902;49.638;11.070;2023-03-01T02:36:37;18.30;;;6.97;;
70444;SDS011;57902;49.638;11.070;2023-03-01T02:39:07;19.27;;;7.25;;
70444;SDS011;57902;49.638;11.070;2023-03-01T02:41:41;21.38;;;8.05;;
70444;SDS011;57902;49.638;11.070;2023-03-01T02:44:12;21.63;;;7.45;;
70444;SDS011;57902;49.638;11.070;2023-03-01T02:46:43;20.95;;;7.57;;
70444;SDS011;57902;49.638;11.070;2023-03-01T02:49:18;21.73;;;7.10;;
70444;SDS011;57902;49.638;11.070;2023-03-01T02:55:08;22.65;;;7.65;;
70444;SDS011;57902;49.638;11.070;2023-03-01T02:57:40;21.05;;;7.85;;
70444;SDS011;57902;49.638;11.070;2023-03-01T03:00:13;20.90;;;7.50;;
70444;SDS011;57902;49.638;11.070;2023-03-01T03:02:46;22.27;;;7.50;;
70444;SDS011;57902;49.638;11.070;2023-03-01T03:05:21;17.65;;;6.32;;
70444;SDS011;57902;49.638;11.070;2023-03-01T03:07:52;22.40;;;7.00;;
70444;SDS011;57902;49.638;11.070;2023-03-01T03:10:20;20.73;;;7.57;;
70444;SDS011;57902;49.638;11.070;2023-03-01T03:12:50;24.63;;;7.68;;
70444;SDS011;57902;49.638;11.070;2023-03-01T03:15:18;20.10;;;7.93;;
70444;SDS011;57902;49.638;11.070;2023-03-01T03:17:46;25.95;;;7.68;;
70444;SDS011;57902;49.638;11.070;2023-03-01T03:20:14;19.77;;;6.70;;
70444;SDS011;57902;49.638;11.070;2023-03-01T03:22:49;22.70;;;7.88;;
70444;SDS011;57902;49.638;11.070;2023-03-01T03:25:17;20.83;;;7.88;;
70444;SDS011;57902;49.638;11.070;2023-03-01T03:27:45;20.77;;;7.07;;
70444;SDS011;57902;49.638;11.070;2023-03-01T03:30:17;22.80;;;8.05;;
70444;SDS011;57902;49.638;11.070;2023-03-01T03:32:46;22.27;;;7.05;;
70444;SDS011;57902;49.638;11.070;2023-03-01T03:35:20;19.10;;;7.20;;
70444;SDS011;57902;49.638;11.070;2023-03-01T03:37:50;21.45;;;7.30;;
70444;SDS011;57902;49.638;11.070;2023-03-01T03:42:58;23.33;;;7.75;;
70444;SDS011;57902;49.638;11.070;2023-03-01T03:45:25;20.70;;;6.90;;
70444;SDS011;57902;49.638;11.070;2023-03-01T03:47:51;22.10;;;7.10;;
70444;SDS011;57902;49.638;11.070;2023-03-01T03:50:18;21.52;;;8.05;;
70444;SDS011;57902;49.638;11.070;2023-03-01T03:52:45;25.42;;;9.10;;
70444;SDS011;57902;49.638;11.070;2023-03-01T03:55:11;25.65;;;7.95;;
70444;SDS011;57902;49.638;11.070;2023-03-01T03:57:39;20.17;;;7.75;;
70444;SDS011;57902;49.638;11.070;2023-03-01T04:00:09;20.63;;;8.20;;
70444;SDS011;57902;49.638;11.070;2023-03-01T04:02:41;22.33;;;7.30;;
70444;SDS011;57902;49.638;11.070;2023-03-01T04:05:09;21.50;;;7.22;;
70444;SDS011;57902;49.638;11.070;2023-03-01T04:07:37;20.77;;;7.28;;
70444;SDS011;57902;49.638;11.070;2023-03-01T04:10:04;21.70;;;7.13;;
70444;SDS011;57902;49.638;11.070;2023-03-01T04:12:33;20.00;;;6.90;;
70444;SDS011;57902;49.638;11.070;2023-03-01T04:15:01;21.60;;;7.28;;
70444;SDS011;57902;49.638;11.070;2023-03-01T04:17:42;21.77;;;7.60;;
70444;SDS011;57902;49.638;11.070;2023-03-01T04:20:10;20.85;;;7.43;;
70444;SDS011;57902;49.638;11.070;2023-03-01T04:22:39;20.65;;;7.40;;
70444;SDS011;57902;49.638;11.070;2023-03-01T04:25:06;21.38;;;7.53;;
70444;SDS011;57902;49.638;11.070;2023-03-01T04:27:34;19.23;;;7.10;;
70444;SDS011;57902;49.638;11.070;2023-03-01T04:30:01;23.75;;;8.88;;
70444;SDS011;57902;49.638;11.070;2023-03-01T04:32:29;24.17;;;8.40;;
70444;SDS011;57902;49.638;11.070;2023-03-01T04:34:56;23.75;;;7.72;;
70444;SDS011;57902;49.638;11.070;2023-03-01T04:37:22;22.90;;;7.40;;
70444;SDS011;57902;49.638;11.070;2023-03-01T04:39:50;19.88;;;7.00;;
70444;SDS011;57902;49.638;11.070;2023-03-01T04:42:16;26.67;;;9.38;;
70444;SDS011;57902;49.638;11.070;2023-03-01T04:44:43;25.55;;;8.70;;
70444;SDS011;57902;49.638;11.070;2023-03-01T04:47:11;22.80;;;7.72;;
70444;SDS011;57902;49.638;11.070;2023-03-01T04:49:37;21.80;;;7.68;;
70444;SDS011;57902;49.638;11.070;2023-03-01T04:52:04;23.73;;;7.75;;
70444;SDS011;57902;49.638;11.070;2023-03-01T04:54:31;21.35;;;7.50;;
70444;SDS011;57902;49.638;11.070;2023-03-01T04:56:59;24.30;;;8.48;;
70444;SDS011;57902;49.638;11.070;2023-03-01T04:59:27;21.00;;;7.70;;
70444;SDS011;57902;49.638;11.070;2023-03-01T05:01:55;21.75;;;7.88;;
70444;SDS011;57902;49.638;11.070;2023-03-01T05:04:23;25.23;;;8.05;;
70444;SDS011;57902;49.638;11.070;2023-03-01T05:06:50;21.27;;;8.27;;
70444;SDS011;57902;49.638;11.070;2023-03-01T05:09:17;21.55;;;7.88;;
70444;SDS011;57902;49.638;11.070;2023-03-01T05:11:43;21.52;;;8.30;;
70444;SDS011;57902;49.638;11.070;2023-03-01T05:14:10;22.23;;;8.38;;
70444;SDS011;57902;49.638;11.070;2023-03-01T05:16:37;21.75;;;7.47;;
70444;SDS011;57902;49.638;11.070;2023-03-01T05:19:03;20.42;;;7.68;;
70444;SDS011;57902;49.638;11.070;2023-03-01T05:21:42;22.00;;;7.57;;
70444;SDS011;57902;49.638;11.070;2023-03-01T05:24:28;26.75;;;8.52;;
70444;SDS011;57902;49.638;11.070;2023-03-01T05:26:55;26.40;;;7.75;;
70444;SDS011;57902;49.638;11.070;2023-03-01T05:29:22;23.60;;;7.47;;
70444;SDS011;57902;49.638;11.070;2023-03-01T05:31:52;25.58;;;7.40;;
70444;SDS011;57902;49.638;11.070;2023-03-01T05:34:31;24.33;;;8.45;;
70444;SDS011;57902;49.638;11.070;2023-03-01T05:36:59;23.20;;;7.32;;
70444;SDS011;57902;49.638;11.070;2023-03-01T05:39:26;25.05;;;7.68;;
70444;SDS011;57902;49.638;11.070;2023-03-01T05:41:54;23.15;;;8.25;;
70444;SDS011;57902;49.638;11.070;2023-03-01T05:44:22;22.00;;;6.72;;
70444;SDS011;57902;49.638;11.070;2023-03-01T05:46:49;22.80;;;7.45;;
70444;SDS011;57902;49.638;11.070;2023-03-01T05:49:16;22.80;;;7.53;;
70444;SDS011;57902;49.638;11.070;2023-03-01T05:51:43;20.05;;;7.65;;
70444;SDS011;57902;49.638;11.070;2023-03-01T05:54:14;25.42;;;7.68;;
70444;SDS011;57902;49.638;11.070;2023-03-01T05:56:41;19.75;;;7.80;;
70444;SDS011;57902;49.638;11.070;2023-03-01T05:59:07;22.30;;;7.30;;
70444;SDS011;57902;49.638;11.070;2023-03-01T06:01:34;21.75;;;7.22;;
70444;SDS011;57902;49.638;11.070;2023-03-01T06:04:02;24.55;;;7.95;;
70444;SDS011;57902;49.638;11.070;2023-03-01T06:06:33;28.50;;;8.70;;
70444;SDS011;57902;49.638;11.070;2023-03-01T06:09:00;22.85;;;7.63;;
70444;SDS011;57902;49.638;11.070;2023-03-01T06:11:27;21.95;;;8.25;;
70444;SDS011;57902;49.638;11.070;2023-03-01T06:13:53;25.00;;;7.95;;
70444;SDS011;57902;49.638;11.070;2023-03-01T06:16:19;22.27;;;7.45;;
70444;SDS011;57902;49.638;11.070;2023-03-01T06:18:46;25.15;;;8.30;;
70444;SDS011;57902;49.638;11.070;2023-03-01T06:21:12;27.17;;;8.15;;
70444;SDS011;57902;49.638;11.070;2023-03-01T06:23:39;27.15;;;9.27;;
70444;SDS011;57902;49.638;11.070;2023-03-01T06:26:06;26.48;;;9.15;;
70444;SDS011;57902;49.638;11.070;2023-03-01T06:28:34;22.70;;;8.38;;
70444;SDS011;57902;49.638;11.070;2023-03-01T06:31:01;25.15;;;8.02;;
70444;SDS011;57902;49.638;11.070;2023-03-01T06:33:27;22.52;;;8.70;;
70444;SDS011;57902;49.638;11.070;2023-03-01T06:35:54;24.00;;;8.13;;
70444;SDS011;57902;49.638;11.070;2023-03-01T06:38:24;29.17;;;10.70;;
70444;SDS011;57902;49.638;11.070;2023-03-01T06:40:51;32.42;;;12.50;;
70444;SDS011;57902;49.638;11.070;2023-03-01T06:45:46;31.50;;;10.32;;
70444;SDS011;57902;49.638;11.070;2023-03-01T06:48:13;30.48;;;10.27;;
70444;SDS011;57902;49.638;11.070;2023-03-01T06:50:39;29.13;;;10.48;;
70444;SDS011;57902;49.638;11.070;2023-03-01T06:53:06;31.65;;;9.75;;
70444;SDS011;57902;49.638;11.070;2023-03-01T06:55:32;35.47;;;10.75;;
70444;SDS011;57902;49.638;11.070;2023-03-01T06:57:59;28.90;;;10.65;;
70444;SDS011;57902;49.638;11.070;2023-03-01T07:00:28;27.08;;;9.93;;
70444;SDS011;57902;49.638;11.070;2023-03-01T07:02:57;27.25;;;10.32;;
70444;SDS011;57902;49.638;11.070;2023-03-01T07:05:24;29.65;;;9.35;;
70444;SDS011;57902;49.638;11.070;2023-03-01T07:07:51;28.75;;;10.05;;
70444;SDS011;57902;49.638;11.070;2023-03-01T07:10:19;28.95;;;10.88;;
70444;SDS011;57902;49.638;11.070;2023-03-01T07:12:46;21.05;;;8.30;;
70444;SDS011;57902;49.638;11.070;2023-03-01T07:15:12;20.73;;;8.73;;
70444;SDS011;57902;49.638;11.070;2023-03-01T07:17:41;23.83;;;9.52;;
70444;SDS011;57902;49.638;11.070;2023-03-01T07:20:07;24.25;;;9.27;;
70444;SDS011;57902;49.638;11.070;2023-03-01T07:22:34;23.88;;;9.38;;
70444;SDS011;57902;49.638;11.070;2023-03-01T07:25:01;23.40;;;9.90;;
70444;SDS011;57902;49.638;11.070;2023-03-01T07:27:27;22.05;;;8.93;;
70444;SDS011;57902;49.638;11.070;2023-03-01T07:29:54;34.70;;;12.23;;
70444;SDS011;57902;49.638;11.070;2023-03-01T07:32:20;30.15;;;10.60;;
70444;SDS011;57902;49.638;11.070;2023-03-01T07:34:47;26.67;;;10.27;;
70444;SDS011;57902;49.638;11.070;2023-03-01T07:37:13;28.20;;;11.05;;
70444;SDS011;57902;49.638;11.070;2023-03-01T07:39:40;27.95;;;11.15;;
70444;SDS011;57902;49.638;11.070;2023-03-01T07:42:06;20.60;;;8.95;;
70444;SDS011;57902;49.638;11.070;2023-03-01T07:44:33;26.20;;;9.95;;
70444;SDS011;57902;49.638;11.070;2023-03-01T07:47:00;21.73;;;9.43;;
70444;SDS011;57902;49.638;11.070;2023-03-01T07:49:27;28.80;;;11.18;;
70444;SDS011;57902;49.638;11.070;2023-03-01T07:51:53;20.83;;;10.00;;
70444;SDS011;57902;49.638;11.070;2023-03-01T07:54:20;22.00;;;9.70;;
70444;SDS011;57902;49.638;11.070;2023-03-01T07:56:46;23.70;;;10.10;;
70444;SDS011;57902;49.638;11.070;2023-03-01T07:59:13;19.50;;;9.05;;
70444;SDS011;57902;49.638;11.070;2023-03-01T08:01:39;33.60;;;11.30;;
70444;SDS011;57902;49.638;11.070;2023-03-01T08:04:07;23.75;;;10.23;;
70444;SDS011;57902;49.638;11.070;2023-03-01T08:06:34;20.40;;;8.93;;
70444;SDS011;57902;49.638;11.070;2023-03-01T08:09:01;26.83;;;10.10;;
70444;SDS011;57902;49.638;11.070;2023-03-01T08:11:28;20.90;;;9.20;;
70444;SDS011;57902;49.638;11.070;2023-03-01T08:13:55;20.25;;;9.55;;
70444;SDS011;57902;49.638;11.070;2023-03-01T08:16:22;32.28;;;11.15;;
70444;SDS011;57902;49.638;11.070;2023-03-01T08:18:49;33.80;;;19.67;;
70444;SDS011;57902;49.638;11.070;2023-03-01T08:21:16;22.30;;;10.02;;
70444;SDS011;57902;49.638;11.070;2023-03-01T08:23:44;20.73;;;9.05;;
70444;SDS011;57902;49.638;11.070;2023-03-01T08:26:15;23.42;;;9.65;;
70444;SDS011;57902;49.638;11.070;2023-03-01T08:28:44;20.08;;;9.65;;
70444;SDS011;57902;49.638;11.070;2023-03-01T08:33:56;23.23;;;9.65;;
70444;SDS011;57902;49.638;11.070;2023-03-01T08:36:35;22.50;;;8.38;;
70444;SDS011;57902;49.638;11.070;2023-03-01T08:39:04;21.75;;;8.95;;
70444;SDS011;57902;49.638;11.070;2023-03-01T08:41:31;18.98;;;9.02;;
70444;SDS011;57902;49.638;11.070;2023-03-01T08:43:58;19.05;;;9.05;;
70444;SDS011;57902;49.638;11.070;2023-03-01T08:46:29;26.35;;;11.20;;
70444;SDS011;57902;49.638;11.070;2023-03-01T08:48:58;19.15;;;8.48;;
70444;SDS011;57902;49.638;11.070;2023-03-01T08:51:25;19.60;;;8.43;;
70444;SDS011;57902;49.638;11.070;2023-03-01T08:53:52;20.75;;;9.30;;
70444;SDS011;57902;49.638;11.070;2023-03-01T08:56:20;18.17;;;8.50;;
70444;SDS011;57902;49.638;11.070;2023-03-01T08:58:47;19.70;;;8.70;;
70444;SDS011;57902;49.638;11.070;2023-03-01T09:01:16;17.65;;;7.82;;
70444;SDS011;57902;49.638;11.070;2023-03-01T09:03:44;22.92;;;10.32;;
70444;SDS011;57902;49.638;11.070;2023-03-01T09:06:12;21.50;;;8.50;;
70444;SDS011;57902;49.638;11.070;2023-03-01T09:08:41;17.52;;;8.80;;
70444;SDS011;57902;49.638;11.070;2023-03-01T09:11:10;19.90;;;8.57;;
70444;SDS011;57902;49.638;11.070;2023-03-01T09:13:38;22.70;;;9.45;;
70444;SDS011;57902;49.638;11.070;2023-03-01T09:16:10;21.77;;;8.32;;
70444;SDS011;57902;49.638;11.070;2023-03-01T09:18:38;19.80;;;9.82;;
70444;SDS011;57902;49.638;11.070;2023-03-01T09:21:14;22.70;;;8.63;;
70444;SDS011;57902;49.638;11.070;2023-03-01T09:23:50;18.42;;;7.80;;
70444;SDS011;57902;49.638;11.070;2023-03-01T09:26:20;17.77;;;7.88;;
70444;SDS011;57902;49.638;11.070;2023-03-01T09:28:48;20.92;;;9.00;;
70444;SDS011;57902;49.638;11.070;2023-03-01T09:31:18;20.13;;;7.82;;
70444;SDS011;57902;49.638;11.070;2023-03-01T09:33:47;22.63;;;8.30;;
70444;SDS011;57902;49.638;11.070;2023-03-01T09:36:16;21.85;;;7.43;;
70444;SDS011;57902;49.638;11.070;2023-03-01T09:38:44;17.55;;;7.45;;
70444;SDS011;57902;49.638;11.070;2023-03-01T09:43:48;20.40;;;8.95;;
70444;SDS011;57902;49.638;11.070;2023-03-01T09:46:22;19.92;;;7.32;;
70444;SDS011;57902;49.638;11.070;2023-03-01T09:48:55;21.00;;;7.43;;
70444;SDS011;57902;49.638;11.070;2023-03-01T09:51:32;19.50;;;7.72;;
70444;SDS011;57902;49.638;11.070;2023-03-01T09:54:03;18.10;;;7.43;;
70444;SDS011;57902;49.638;11.070;2023-03-01T09:56:40;20.20;;;7.82;;
70444;SDS011;57902;49.638;11.070;2023-03-01T10:01:41;17.23;;;7.70;;
70444;SDS011;57902;49.638;11.070;2023-03-01T10:07:29;22.02;;;7.57;;
70444;SDS011;57902;49.638;11.070;2023-03-01T10:09:57;22.17;;;7.55;;
70444;SDS011;57902;49.638;11.070;2023-03-01T10:12:25;19.50;;;8.52;;
70444;SDS011;57902;49.638;11.070;2023-03-01T10:15:11;17.90;;;7.85;;
70444;SDS011;57902;49.638;11.070;2023-03-01T10:20:20;19.95;;;7.32;;
70444;SDS011;57902;49.638;11.070;2023-03-01T10:22:51;19.13;;;8.05;;
70444;SDS011;57902;49.638;11.070;2023-03-01T10:25:24;17.35;;;6.65;;
70444;SDS011;57902;49.638;11.070;2023-03-01T10:27:59;18.15;;;7.68;;
70444;SDS011;57902;49.638;11.070;2023-03-01T10:30:35;18.67;;;7.72;;
70444;SDS011;57902;49.638;11.070;2023-03-01T10:33:17;21.48;;;7.32;;
70444;SDS011;57902;49.638;11.070;2023-03-01T10:35:49;19.70;;;8.13;;
70444;SDS011;57902;49.638;11.070;2023-03-01T10:38:16;16.30;;;6.32;;
70444;SDS011;57902;49.638;11.070;2023-03-01T10:40:51;17.98;;;6.93;;
70444;SDS011;57902;49.638;11.070;2023-03-01T10:45:52;15.63;;;6.18;;
70444;SDS011;57902;49.638;11.070;2023-03-01T10:48:26;16.45;;;6.70;;
70444;SDS011;57902;49.638;11.070;2023-03-01T10:53:25;15.95;;;6.65;;
70444;SDS011;57902;49.638;11.070;2023-03-01T10:55:56;16.98;;;6.90;;
70444;SDS011;57902;49.638;11.070;2023-03-01T10:58:23;16.67;;;7.15;;
70444;SDS011;57902;49.638;11.070;2023-03-01T11:06:32;14.65;;;6.60;;
70444;SDS011;57902;49.638;11.070;2023-03-01T11:11:46;15.63;;;6.40;;
70444;SDS011;57902;49.638;11.070;2023-03-01T11:14:22;16.88;;;7.40;;
70444;SDS011;57902;49.638;11.070;2023-03-01T11:17:23;16.20;;;6.75;;
70444;SDS011;57902;49.638;11.070;2023-03-01T11:22:59;22.10;;;7.50;;
70444;SDS011;57902;49.638;11.070;2023-03-01T11:25:31;17.30;;;7.18;;
70444;SDS011;57902;49.638;11.070;2023-03-01T11:28:03;15.75;;;6.55;;
70444;SDS011;57902;49.638;11.070;2023-03-01T11:33:03;18.10;;;7.05;;
70444;SDS011;57902;49.638;11.070;2023-03-01T11:35:42;20.48;;;8.27;;
70444;SDS011;57902;49.638;11.070;2023-03-01T11:38:17;19.60;;;7.15;;
70444;SDS011;57902;49.638;11.070;2023-03-01T11:41:08;21.63;;;7.90;;
70444;SDS011;57902;49.638;11.070;2023-03-01T11:49:12;19.38;;;7.97;;
70444;SDS011;57902;49.638;11.070;2023-03-01T11:52:08;22.13;;;8.68;;
70444;SDS011;57902;49.638;11.070;2023-03-01T12:01:07;19.95;;;8.23;;
70444;SDS011;57902;49.638;11.070;2023-03-01T12:03:26;18.38;;;7.60;;
70444;SDS011;57902;49.638;11.070;2023-03-01T12:17:19;19.10;;;8.00;;
70444;SDS011;57902;49.638;11.070;2023-03-01T12:20:02;24.77;;;9.35;;
70444;SDS011;57902;49.638;11.070;2023-03-01T12:22:47;22.08;;;7.53;;
70444;SDS011;57902;49.638;11.070;2023-03-01T12:37:21;22.15;;;8.00;;
70444;SDS011;57902;49.638;11.070;2023-03-01T12:42:41;21.92;;;8.45;;
70444;SDS011;57902;49.638;11.070;2023-03-01T12:50:53;19.40;;;7.72;;
70444;SDS011;57902;49.638;11.070;2023-03-01T12:53:27;18.83;;;7.07;;
70444;SDS011;57902;49.638;11.070;2023-03-01T12:56:01;18.75;;;7.72;;
70444;SDS011;57902;49.638;11.070;2023-03-01T13:10:19;26.42;;;11.07;;
70444;SDS011;57902;49.638;11.070;2023-03-01T13:15:27;18.88;;;7.72;;
70444;SDS011;57902;49.638;11.070;2023-03-01T13:33:47;18.02;;;7.47;;
70444;SDS011;57902;49.638;11.070;2023-03-01T13:44:21;19.52;;;7.85;;
70444;SDS011;57902;49.638;11.070;2023-03-01T13:46:53;20.35;;;8.85;;
70444;SDS011;57902;49.638;11.070;2023-03-01T13:49:26;19.67;;;7.85;;
70444;SDS011;57902;49.638;11.070;2023-03-01T13:52:35;18.52;;;7.45;;
70444;SDS011;57902;49.638;11.070;2023-03-01T13:55:23;19.85;;;7.65;;
70444;SDS011;57902;49.638;11.070;2023-03-01T13:57:59;19.50;;;7.85;;
70444;SDS011;57902;49.638;11.070;2023-03-01T14:00:29;17.15;;;7.63;;
70444;SDS011;57902;49.638;11.070;2023-03-01T14:03:15;19.23;;;8.40;;
70444;SDS011;57902;49.638;11.070;2023-03-01T14:05:59;20.73;;;7.28;;
70444;SDS011;57902;49.638;11.070;2023-03-01T14:08:41;18.50;;;7.30;;
70444;SDS011;57902;49.638;11.070;2023-03-01T14:14:25;23.60;;;8.23;;
70444;SDS011;57902;49.638;11.070;2023-03-01T14:20:03;21.35;;;8.55;;
70444;SDS011;57902;49.638;11.070;2023-03-01T14:22:37;19.85;;;6.95;;
70444;SDS011;57902;49.638;11.070;2023-03-01T14:25:25;15.90;;;6.85;;
70444;SDS011;57902;49.638;11.070;2023-03-01T14:27:57;17.98;;;6.82;;
70444;SDS011;57902;49.638;11.070;2023-03-01T14:30:43;13.18;;;5.43;;
70444;SDS011;57902;49.638;11.070;2023-03-01T14:33:19;15.05;;;6.07;;
70444;SDS011;57902;49.638;11.070;2023-03-01T14:35:54;16.70;;;6.65;;
70444;SDS011;57902;49.638;11.070;2023-03-01T14:38:22;16.58;;;6.50;;
70444;SDS011;57902;49.638;11.070;2023-03-01T14:40:51;17.42;;;7.60;;
70444;SDS011;57902;49.638;11.070;2023-03-01T14:43:24;17.45;;;8.45;;
70444;SDS011;57902;49.638;11.070;2023-03-01T14:45:52;17.80;;;7.75;;
70444;SDS011;57902;49.638;11.070;2023-03-01T14:48:18;16.85;;;7.50;;
70444;SDS011;57902;49.638;11.070;2023-03-01T14:50:45;17.65;;;6.93;;
70444;SDS011;57902;49.638;11.070;2023-03-01T14:53:17;16.67;;;7.07;;
70444;SDS011;57902;49.638;11.070;2023-03-01T14:55:47;16.90;;;7.38;;
70444;SDS011;57902;49.638;11.070;2023-03-01T14:58:18;16.65;;;7.13;;
70444;SDS011;57902;49.638;11.070;2023-03-01T15:00:48;19.48;;;9.18;;
70444;SDS011;57902;49.638;11.070;2023-03-01T15:03:36;16.17;;;6.32;;
70444;SDS011;57902;49.638;11.070;2023-03-01T15:06:07;20.55;;;8.05;;
70444;SDS011;57902;49.638;11.070;2023-03-01T15:08:35;18.92;;;7.18;;
70444;SDS011;57902;49.638;11.070;2023-03-01T15:13:51;16.58;;;7.07;;
70444;SDS011;57902;49.638;11.070;2023-03-01T15:16:19;19.20;;;7.72;;
70444;SDS011;57902;49.638;11.070;2023-03-01T15:18:51;18.15;;;7.35;;
70444;SDS011;57902;49.638;11.070;2023-03-01T15:24:29;17.67;;;7.50;;
70444;SDS011;57902;49.638;11.070;2023-03-01T15:26:56;17.48;;;7.25;;
70444;SDS011;57902;49.638;11.070;2023-03-01T15:29:28;21.60;;;8.88;;
70444;SDS011;57902;49.638;11.070;2023-03-01T15:32:03;19.13;;;9.00;;
70444;SDS011;57902;49.638;11.070;2023-03-01T15:34:32;19.15;;;7.97;;
70444;SDS011;57902;49.638;11.070;2023-03-01T15:37:04;17.48;;;8.02;;
70444;SDS011;57902;49.638;11.070;2023-03-01T15:39:56;18.83;;;6.85;;
70444;SDS011;57902;49.638;11.070;2023-03-01T15:45:09;17.60;;;7.80;;
70444;SDS011;57902;49.638;11.070;2023-03-01T15:47:47;22.75;;;8.98;;
70444;SDS011;57902;49.638;11.070;2023-03-01T15:50:23;22.67;;;8.48;;
70444;SDS011;57902;49.638;11.070;2023-03-01T15:52:53;19.52;;;7.10;;
70444;SDS011;57902;49.638;11.070;2023-03-01T15:55:22;14.82;;;6.10;;
70444;SDS011;57902;49.638;11.070;2023-03-01T15:57:50;20.27;;;8.48;;
70444;SDS011;57902;49.638;11.070;2023-03-01T16:00:26;19.05;;;7.80;;
70444;SDS011;57902;49.638;11.070;2023-03-01T16:02:54;20.08;;;8.00;;
70444;SDS011;57902;49.638;11.070;2023-03-01T16:07:53;18.08;;;6.78;;
70444;SDS011;57902;49.638;11.070;2023-03-01T16:10:20;18.35;;;7.10;;
70444;SDS011;57902;49.638;11.070;2023-03-01T16:12:46;18.70;;;7.63;;
70444;SDS011;57902;49.638;11.070;2023-03-01T16:15:21;18.20;;;7.28;;
70444;SDS011;57902;49.638;11.070;2023-03-01T16:17:56;18.48;;;8.00;;
70444;SDS011;57902;49.638;11.070;2023-03-01T16:20:24;23.77;;;9.18;;
70444;SDS011;57902;49.638;11.070;2023-03-01T16:22:59;20.00;;;7.85;;
70444;SDS011;57902;49.638;11.070;2023-03-01T16:25:30;22.70;;;8.52;;
70444;SDS011;57902;49.638;11.070;2023-03-01T16:27:58;20.33;;;7.65;;
70444;SDS011;57902;49.638;11.070;2023-03-01T16:30:27;16.20;;;6.90;;
70444;SDS011;57902;49.638;11.070;2023-03-01T16:32:53;19.38;;;7.82;;
70444;SDS011;57902;49.638;11.070;2023-03-01T16:35:20;19.42;;;7.28;;
70444;SDS011;57902;49.638;11.070;2023-03-01T16:37:48;25.27;;;9.75;;
70444;SDS011;57902;49.638;11.070;2023-03-01T16:40:16;23.15;;;8.82;;
70444;SDS011;57902;49.638;11.070;2023-03-01T16:42:43;21.98;;;8.52;;
70444;SDS011;57902;49.638;11.070;2023-03-01T16:45:10;20.65;;;8.32;;
70444;SDS011;57902;49.638;11.070;2023-03-01T16:47:49;20.40;;;7.72;;
70444;SDS011;57902;49.638;11.070;2023-03-01T16:50:17;20.10;;;8.77;;
70444;SDS011;57902;49.638;11.070;2023-03-01T16:52:43;25.73;;;10.35;;
70444;SDS011;57902;49.638;11.070;2023-03-01T16:55:10;21.42;;;9.10;;
70444;SDS011;57902;49.638;11.070;2023-03-01T16:57:38;26.88;;;10.10;;
70444;SDS011;57902;49.638;11.070;2023-03-01T17:00:05;29.88;;;11.65;;
70444;SDS011;57902;49.638;11.070;2023-03-01T17:02:34;22.40;;;9.10;;
70444;SDS011;57902;49.638;11.070;2023-03-01T17:05:01;29.63;;;11.23;;
70444;SDS011;57902;49.638;11.070;2023-03-01T17:07:29;24.27;;;9.55;;
70444;SDS011;57902;49.638;11.070;2023-03-01T17:10:00;25.00;;;9.80;;